createdAt,value
2022-07-25T00:00:39.182Z,58.92
2022-07-25T00:01:39.270Z,59.02
2022-07-25T00:02:39.170Z,59.02
2022-07-25T00:03:39.237Z,59.02
2022-07-25T00:04:39.237Z,59.12
2022-07-25T00:05:39.132Z,59.12
2022-07-25T00:06:39.133Z,59.22
2022-07-25T00:07:39.106Z,59.22
2022-07-25T00:08:39.109Z,59.22
2022-07-25T00:09:39.085Z,59.92
2022-07-25T00:10:39.082Z,60.32
2022-07-25T00:11:39.068Z,60.32
2022-07-25T00:12:39.060Z,60.22
2022-07-25T00:13:39.047Z,59.85
2022-07-25T00:14:39.036Z,59.85
2022-07-25T00:15:39.036Z,59.85
2022-07-25T00:16:39.028Z,60.05
2022-07-25T00:17:38.997Z,60.05
2022-07-25T00:18:38.988Z,60.05
2022-07-25T00:19:38.982Z,60.05
2022-07-25T00:20:38.969Z,60.05
2022-07-25T00:21:38.963Z,60.15
2022-07-25T00:22:38.950Z,60.35
2022-07-25T00:23:38.940Z,60.58
2022-07-25T00:24:38.930Z,60.78
2022-07-25T00:25:38.920Z,60.97
2022-07-25T00:26:40.562Z,61.27
2022-07-25T00:27:38.884Z,61.38
2022-07-25T00:28:38.899Z,61.38
2022-07-25T00:29:38.882Z,61.38
2022-07-25T00:30:38.861Z,61.38
2022-07-25T00:31:38.917Z,61.51
2022-07-25T00:32:38.844Z,61.60
2022-07-25T00:33:38.825Z,61.71
2022-07-25T00:34:38.814Z,61.90
2022-07-25T00:35:38.815Z,62.01
2022-07-25T00:36:38.809Z,62.10
2022-07-25T00:37:38.794Z,62.20
2022-07-25T00:38:38.804Z,62.43
2022-07-25T00:39:38.763Z,63.03
2022-07-25T00:40:38.756Z,63.33
2022-07-25T00:41:38.766Z,63.53
2022-07-25T00:42:38.727Z,63.63
2022-07-25T00:43:38.716Z,63.93
2022-07-25T00:44:38.706Z,64.23
2022-07-25T00:45:38.688Z,64.43
2022-07-25T00:46:38.767Z,64.33
2022-07-25T00:47:38.671Z,64.43
2022-07-25T00:48:38.687Z,64.46
2022-07-25T00:49:38.660Z,64.43
2022-07-25T00:50:38.649Z,64.36
2022-07-25T00:51:38.639Z,64.26
2022-07-25T00:52:38.621Z,64.06
2022-07-25T00:53:38.610Z,63.86
2022-07-25T00:54:38.598Z,63.76
2022-07-25T00:55:38.589Z,63.76
2022-07-25T00:56:38.598Z,63.66
2022-07-25T00:57:38.561Z,63.56
2022-07-25T00:58:38.551Z,63.66
2022-07-25T00:59:38.552Z,63.56
2022-07-25T01:00:38.532Z,63.46
2022-07-25T01:01:38.561Z,63.36
2022-07-25T01:02:38.571Z,63.36
2022-07-25T01:03:38.494Z,63.36
2022-07-25T01:04:38.507Z,63.36
2022-07-25T01:05:38.482Z,63.36
2022-07-25T01:06:38.473Z,63.36
2022-07-25T01:07:38.454Z,63.46
2022-07-25T01:08:38.454Z,63.36
2022-07-25T01:09:38.445Z,63.36
2022-07-25T01:10:38.434Z,63.26
2022-07-25T01:11:38.429Z,63.26
2022-07-25T01:12:38.407Z,63.26
2022-07-25T01:13:38.397Z,63.26
2022-07-25T01:14:38.389Z,63.26
2022-07-25T01:15:38.415Z,63.26
2022-07-25T01:16:38.379Z,63.17
2022-07-25T01:17:38.358Z,63.17
2022-07-25T01:18:38.339Z,63.17
2022-07-25T01:19:38.339Z,63.06
2022-07-25T01:20:38.321Z,63.06
2022-07-25T01:21:38.309Z,62.96
2022-07-25T01:22:38.309Z,62.96
2022-07-25T01:23:38.312Z,62.96
2022-07-25T01:24:38.299Z,63.06
2022-07-25T01:25:38.280Z,63.06
2022-07-25T01:26:38.291Z,62.96
2022-07-25T01:27:38.233Z,62.96
2022-07-25T01:28:38.232Z,62.96
2022-07-25T01:29:38.223Z,63.06
2022-07-25T01:30:38.271Z,62.96
2022-07-25T01:31:38.287Z,62.96
2022-07-25T01:32:38.183Z,63.06
2022-07-25T01:33:38.172Z,63.06
2022-07-25T01:34:38.177Z,63.06
2022-07-25T01:35:43.271Z,63.17
2022-07-25T01:36:39.393Z,62.96
2022-07-25T01:37:38.133Z,62.96
2022-07-25T01:38:38.125Z,63.06
2022-07-25T01:39:38.116Z,62.96
2022-07-25T01:40:38.118Z,62.99
2022-07-25T01:41:38.106Z,62.99
2022-07-25T01:42:38.078Z,62.99
2022-07-25T01:43:38.067Z,62.99
2022-07-25T01:44:38.058Z,62.99
2022-07-25T01:45:38.038Z,63.39
2022-07-25T01:46:38.103Z,63.49
2022-07-25T01:47:38.029Z,63.49
2022-07-25T01:48:38.094Z,63.59
2022-07-25T01:49:38.021Z,63.49
2022-07-25T01:50:38.001Z,63.59
2022-07-25T01:51:37.994Z,63.49
2022-07-25T01:52:37.984Z,63.49
2022-07-25T01:53:37.969Z,63.69
2022-07-25T01:54:37.951Z,63.69
2022-07-25T01:55:37.940Z,63.69
2022-07-25T01:56:37.948Z,63.82
2022-07-25T01:57:37.912Z,63.92
2022-07-25T01:58:37.924Z,63.92
2022-07-25T01:59:37.902Z,63.92
2022-07-25T02:00:37.882Z,63.92
2022-07-25T02:01:37.956Z,63.92
2022-07-25T02:02:37.869Z,64.03
2022-07-25T02:03:37.845Z,64.22
2022-07-25T02:04:37.915Z,64.32
2022-07-25T02:05:37.824Z,64.42
2022-07-25T02:06:37.843Z,64.42
2022-07-25T02:07:37.804Z,64.83
2022-07-25T02:08:37.804Z,65.02
2022-07-25T02:09:37.794Z,65.12
2022-07-25T02:10:37.796Z,65.12
2022-07-25T02:11:37.776Z,65.22
2022-07-25T02:12:37.756Z,65.45
2022-07-25T02:13:37.777Z,65.55
2022-07-25T02:14:37.738Z,65.66
2022-07-25T02:15:37.752Z,65.55
2022-07-25T02:16:37.752Z,65.45
2022-07-25T02:17:37.700Z,65.36
2022-07-25T02:18:37.689Z,65.16
2022-07-25T02:19:37.689Z,65.16
2022-07-25T02:20:37.678Z,65.25
2022-07-25T02:21:37.667Z,65.36
2022-07-25T02:22:37.650Z,65.36
2022-07-25T02:23:37.640Z,65.36
2022-07-25T02:24:37.632Z,65.36
2022-07-25T02:25:37.612Z,65.45
2022-07-25T02:26:37.623Z,65.55
2022-07-25T02:27:37.591Z,65.75
2022-07-25T02:28:37.591Z,65.66
2022-07-25T02:29:37.582Z,65.66
2022-07-25T02:30:37.581Z,65.66
2022-07-25T02:31:37.579Z,65.66
2022-07-25T02:32:37.544Z,65.69
2022-07-25T02:33:37.539Z,65.69
2022-07-25T02:34:37.516Z,65.89
2022-07-25T02:35:37.514Z,65.89
2022-07-25T02:36:37.515Z,65.89
2022-07-25T02:37:37.497Z,65.99
2022-07-25T02:38:37.485Z,66.09
2022-07-25T02:39:37.484Z,65.99
2022-07-25T02:40:37.457Z,66.39
2022-07-25T02:41:37.462Z,66.59
2022-07-25T02:42:37.427Z,66.69
2022-07-25T02:43:37.449Z,66.59
2022-07-25T02:44:37.417Z,66.78
2022-07-25T02:45:37.477Z,66.92
2022-07-25T02:46:37.456Z,67.02
2022-07-25T02:47:37.503Z,67.22
2022-07-25T02:48:37.418Z,67.32
2022-07-25T02:49:37.429Z,67.52
2022-07-25T02:50:37.348Z,67.62
2022-07-25T02:51:37.340Z,67.62
2022-07-25T02:52:37.321Z,67.72
2022-07-25T02:53:56.667Z,67.82
2022-07-25T02:54:38.299Z,67.82
2022-07-25T02:55:37.291Z,67.82
2022-07-25T02:56:37.303Z,68.12
2022-07-25T02:57:37.275Z,68.26
2022-07-25T02:58:37.270Z,68.26
2022-07-25T02:59:37.260Z,68.35
2022-07-25T03:00:38.222Z,68.35
2022-07-25T03:01:37.336Z,68.55
2022-07-25T03:02:37.222Z,68.85
2022-07-25T03:03:37.280Z,68.76
2022-07-25T03:04:37.220Z,68.65
2022-07-25T03:05:37.191Z,68.65
2022-07-25T03:06:37.175Z,68.55
2022-07-25T03:07:37.176Z,68.55
2022-07-25T03:08:37.175Z,68.96
2022-07-25T03:09:37.146Z,68.85
2022-07-25T03:10:37.133Z,69.06
2022-07-25T03:11:37.204Z,69.16
2022-07-25T03:12:37.113Z,69.35
2022-07-25T03:13:37.109Z,69.56
2022-07-25T03:14:37.088Z,69.76
2022-07-25T03:15:37.079Z,69.79
2022-07-25T03:16:37.145Z,69.79
2022-07-25T03:17:37.059Z,69.99
2022-07-25T03:18:37.039Z,69.99
2022-07-25T03:19:37.049Z,70.19
2022-07-25T03:20:37.018Z,70.39
2022-07-25T03:21:37.009Z,70.50
2022-07-25T03:22:37.008Z,70.69
2022-07-25T03:23:37.049Z,70.79
2022-07-25T03:24:36.991Z,70.69
2022-07-25T03:25:36.969Z,70.69
2022-07-25T03:26:36.959Z,70.79
2022-07-25T03:27:36.942Z,70.79
2022-07-25T03:28:36.932Z,70.89
2022-07-25T03:29:36.941Z,71.00
2022-07-25T03:30:36.951Z,71.00
2022-07-25T03:31:36.938Z,71.00
2022-07-25T03:32:36.892Z,71.13
2022-07-25T03:33:36.881Z,71.43
2022-07-25T03:34:36.882Z,71.73
2022-07-25T03:35:36.863Z,71.83
2022-07-25T03:36:36.857Z,71.63
2022-07-25T03:37:36.844Z,71.73
2022-07-25T03:38:36.825Z,71.73
2022-07-25T03:39:36.823Z,71.63
2022-07-25T03:40:36.807Z,71.63
2022-07-25T03:41:36.798Z,71.73
2022-07-25T03:42:36.795Z,71.83
2022-07-25T03:43:36.787Z,71.73
2022-07-25T03:44:36.777Z,71.73
2022-07-25T03:45:36.822Z,71.73
2022-07-25T03:46:36.737Z,71.73
2022-07-25T03:47:36.735Z,71.83
2022-07-25T03:48:36.756Z,71.73
2022-07-25T03:49:36.736Z,71.93
2022-07-25T03:50:36.699Z,72.03
2022-07-25T03:51:36.695Z,72.33
2022-07-25T03:52:36.678Z,72.63
2022-07-25T03:53:36.667Z,72.53
2022-07-25T03:54:36.658Z,72.74
2022-07-25T03:55:36.642Z,72.83
2022-07-25T03:56:36.629Z,72.83
2022-07-25T03:57:37.620Z,73.03
2022-07-25T03:58:36.610Z,73.03
2022-07-25T03:59:36.611Z,73.24
2022-07-25T04:00:36.669Z,73.03
2022-07-25T04:01:36.659Z,72.83
2022-07-25T04:02:36.598Z,72.74
2022-07-25T04:03:36.552Z,72.74
2022-07-25T04:04:36.561Z,72.63
2022-07-25T04:05:36.532Z,72.53
2022-07-25T04:06:36.521Z,72.43
2022-07-25T04:07:36.515Z,72.33
2022-07-25T04:08:36.505Z,72.33
2022-07-25T04:09:36.511Z,72.43
2022-07-25T04:10:36.486Z,72.33
2022-07-25T04:11:36.485Z,72.24
2022-07-25T04:12:36.465Z,72.24
2022-07-25T04:13:36.456Z,72.24
2022-07-25T04:14:36.435Z,72.33
2022-07-25T04:15:36.450Z,72.13
2022-07-25T04:16:36.895Z,72.13
2022-07-25T04:17:36.723Z,72.13
2022-07-25T04:18:36.396Z,72.13
2022-07-25T04:19:36.386Z,72.13
2022-07-25T04:20:36.400Z,72.03
2022-07-25T04:21:36.368Z,71.83
2022-07-25T04:22:36.357Z,71.83
2022-07-25T04:23:36.360Z,71.93
2022-07-25T04:24:36.337Z,72.03
2022-07-25T04:25:36.330Z,72.03
2022-07-25T04:26:36.318Z,72.13
2022-07-25T04:27:36.291Z,72.13
2022-07-25T04:28:36.290Z,72.20
2022-07-25T04:29:36.270Z,72.30
2022-07-25T04:30:36.280Z,72.40
2022-07-25T04:31:36.355Z,72.40
2022-07-25T04:32:36.250Z,72.50
2022-07-25T04:33:36.239Z,72.70
2022-07-25T04:34:36.235Z,72.90
2022-07-25T04:35:36.231Z,73.07
2022-07-25T04:36:36.212Z,73.16
2022-07-25T04:37:36.205Z,73.27
2022-07-25T04:38:36.204Z,73.36
2022-07-25T04:39:36.171Z,73.36
2022-07-25T04:40:36.196Z,73.47
2022-07-25T04:41:36.166Z,73.73
2022-07-25T04:42:36.150Z,73.93
2022-07-25T04:43:36.133Z,74.03
2022-07-25T04:44:36.136Z,74.23
2022-07-25T04:45:36.160Z,74.54
2022-07-25T04:46:36.138Z,74.84
2022-07-25T04:47:36.097Z,74.84
2022-07-25T04:48:36.130Z,75.10
2022-07-25T04:49:36.076Z,75.20
2022-07-25T04:50:36.067Z,75.30
2022-07-25T04:51:36.057Z,74.90
2022-07-25T04:52:36.038Z,74.40
2022-07-25T04:53:36.017Z,73.46
2022-07-25T04:54:36.018Z,73.46
2022-07-25T04:55:35.999Z,73.36
2022-07-25T04:56:36.020Z,73.86
2022-07-25T04:57:35.980Z,73.72
2022-07-25T04:58:35.980Z,72.83
2022-07-25T04:59:35.968Z,72.03
2022-07-25T05:00:35.971Z,71.42
2022-07-25T05:01:36.049Z,70.69
2022-07-25T05:02:35.962Z,70.29
2022-07-25T05:03:35.913Z,69.89
2022-07-25T05:04:35.914Z,69.39
2022-07-25T05:05:36.892Z,69.19
2022-07-25T05:06:35.901Z,68.76
2022-07-25T05:07:35.877Z,67.96
2022-07-25T05:08:35.862Z,67.96
2022-07-25T05:09:35.852Z,68.26
2022-07-25T05:10:35.845Z,67.66
2022-07-25T05:11:35.854Z,67.53
2022-07-25T05:12:35.825Z,67.43
2022-07-25T05:13:35.813Z,67.43
2022-07-25T05:14:35.804Z,67.49
2022-07-25T05:15:35.784Z,66.70
2022-07-25T05:16:35.819Z,66.50
2022-07-25T05:17:35.767Z,66.17
2022-07-25T05:18:35.754Z,66.06
2022-07-25T05:19:35.745Z,65.14
2022-07-25T05:20:35.738Z,64.74
2022-07-25T05:21:35.734Z,64.34
2022-07-25T05:22:35.721Z,63.71
2022-07-25T05:23:35.719Z,63.61
2022-07-25T05:24:35.687Z,63.31
2022-07-25T05:25:35.689Z,62.98
2022-07-25T05:26:35.692Z,62.59
2022-07-25T05:27:35.658Z,61.69
2022-07-25T05:28:35.643Z,61.39
2022-07-25T05:29:35.651Z,61.25
2022-07-25T05:30:39.722Z,61.16
2022-07-25T05:31:35.644Z,61.36
2022-07-25T05:32:35.623Z,61.55
2022-07-25T05:33:35.591Z,60.96
2022-07-25T05:34:35.591Z,61.33
2022-07-25T05:35:35.580Z,61.03
2022-07-25T05:36:35.571Z,61.13
2022-07-25T05:37:35.564Z,60.63
2022-07-25T05:38:35.535Z,59.83
2022-07-25T05:39:35.531Z,59.83
2022-07-25T05:40:35.522Z,60.00
2022-07-25T05:41:35.525Z,60.30
2022-07-25T05:42:35.494Z,59.21
2022-07-25T05:43:35.495Z,59.41
2022-07-25T05:44:35.465Z,59.61
2022-07-25T05:45:35.464Z,60.11
2022-07-25T05:46:35.560Z,59.18
2022-07-25T05:47:35.467Z,59.28
2022-07-25T05:48:35.479Z,58.98
2022-07-25T05:49:35.446Z,59.28
2022-07-25T05:50:35.407Z,58.78
2022-07-25T05:51:35.398Z,58.88
2022-07-25T05:52:35.410Z,59.45
2022-07-25T05:53:35.398Z,59.65
2022-07-25T05:54:35.369Z,59.45
2022-07-25T05:55:35.369Z,59.85
2022-07-25T05:56:35.361Z,59.25
2022-07-25T05:57:35.358Z,58.33
2022-07-25T05:58:35.331Z,58.83
2022-07-25T05:59:35.331Z,60.12
2022-07-25T06:00:35.301Z,59.59
2022-07-25T06:01:35.358Z,58.80
2022-07-25T06:02:35.471Z,58.90
2022-07-25T06:03:35.274Z,58.97
2022-07-25T06:04:35.284Z,58.07
2022-07-25T06:05:35.257Z,57.68
2022-07-25T06:06:35.236Z,57.25
2022-07-25T06:07:35.255Z,56.76
2022-07-25T06:08:35.225Z,56.53
2022-07-25T06:09:35.208Z,55.94
2022-07-25T06:10:35.203Z,56.23
2022-07-25T06:11:35.207Z,56.40
2022-07-25T06:12:36.451Z,56.21
2022-07-25T06:13:35.197Z,55.58
2022-07-25T06:14:35.167Z,56.18
2022-07-25T06:15:35.148Z,56.35
2022-07-25T06:16:35.176Z,55.56
2022-07-25T06:17:35.150Z,56.32
2022-07-25T06:18:35.106Z,58.20
2022-07-25T06:19:35.109Z,57.48
2022-07-25T06:20:35.090Z,56.49
2022-07-25T06:21:35.080Z,56.37
2022-07-25T06:22:35.085Z,56.27
2022-07-25T06:23:35.061Z,55.38
2022-07-25T06:24:35.041Z,54.76
2022-07-25T06:25:35.034Z,54.66
2022-07-25T06:26:35.022Z,52.76
2022-07-25T06:27:35.023Z,52.66
2022-07-25T06:28:34.994Z,52.44
2022-07-25T06:29:34.994Z,53.50
2022-07-25T06:30:34.973Z,53.67
2022-07-25T06:31:35.151Z,50.98
2022-07-25T06:32:34.968Z,52.04
2022-07-25T06:33:34.937Z,50.44
2022-07-25T06:34:34.927Z,49.73
2022-07-25T06:35:34.929Z,47.73
2022-07-25T06:36:34.910Z,47.61
2022-07-25T06:37:34.910Z,48.08
2022-07-25T06:38:34.888Z,48.55
2022-07-25T06:39:34.878Z,48.13
2022-07-25T06:40:34.859Z,45.65
2022-07-25T06:41:34.859Z,47.20
2022-07-25T06:42:34.852Z,45.61
2022-07-25T06:43:34.849Z,45.24
2022-07-25T06:44:34.836Z,47.81
2022-07-25T06:45:34.813Z,46.06
2022-07-25T06:46:34.888Z,47.47
2022-07-25T06:47:36.113Z,47.27
2022-07-25T06:48:34.810Z,46.19
2022-07-25T06:49:34.784Z,46.60
2022-07-25T06:50:34.777Z,46.72
2022-07-25T06:51:34.766Z,47.04
2022-07-25T06:52:34.759Z,49.50
2022-07-25T06:53:34.756Z,47.75
2022-07-25T06:54:34.724Z,48.35
2022-07-25T06:55:34.721Z,47.26
2022-07-25T06:56:34.707Z,47.73
2022-07-25T06:57:34.711Z,47.44
2022-07-25T06:58:34.689Z,46.62
2022-07-25T06:59:34.679Z,47.51
2022-07-25T07:00:34.704Z,47.31
2022-07-25T07:01:34.734Z,46.41
2022-07-25T07:02:34.669Z,46.70
2022-07-25T07:03:34.711Z,46.50
2022-07-25T07:04:34.631Z,47.29
2022-07-25T07:05:34.632Z,46.43
2022-07-25T07:06:34.602Z,47.61
2022-07-25T07:07:34.616Z,47.04
2022-07-25T07:08:34.595Z,47.56
2022-07-25T07:09:34.609Z,48.47
2022-07-25T07:10:34.613Z,49.97
2022-07-25T07:11:34.555Z,49.20
2022-07-25T07:12:34.544Z,49.40
2022-07-25T07:13:34.540Z,49.60
2022-07-25T07:14:34.518Z,49.30
2022-07-25T07:15:34.510Z,49.40
2022-07-25T07:16:34.623Z,49.40
2022-07-25T07:17:34.528Z,50.29
2022-07-25T07:18:34.484Z,51.07
2022-07-25T07:19:34.478Z,50.16
2022-07-25T07:20:34.469Z,49.65
2022-07-25T07:21:34.451Z,50.04
2022-07-25T07:22:34.452Z,48.96
2022-07-25T07:23:34.431Z,49.35
2022-07-25T07:24:34.412Z,49.55
2022-07-25T07:25:34.413Z,49.48
2022-07-25T07:26:34.412Z,49.08
2022-07-25T07:27:34.423Z,48.79
2022-07-25T07:28:34.383Z,49.18
2022-07-25T07:29:34.385Z,51.05
2022-07-25T07:31:05.598Z,49.67
2022-07-25T07:31:35.399Z,50.04
2022-07-25T07:32:34.376Z,49.35
2022-07-25T07:33:34.333Z,48.05
2022-07-25T07:34:34.317Z,48.83
2022-07-25T07:35:34.938Z,47.85
2022-07-25T07:36:34.287Z,48.54
2022-07-25T07:37:38.758Z,48.03
2022-07-25T07:38:35.279Z,47.22
2022-07-25T07:39:34.262Z,48.08
2022-07-25T07:40:34.259Z,46.48
2022-07-25T07:41:34.240Z,46.48
2022-07-25T07:42:34.240Z,45.50
2022-07-25T07:43:34.231Z,46.50
2022-07-25T07:44:34.223Z,47.71
2022-07-25T07:45:34.212Z,48.91
2022-07-25T07:46:34.286Z,47.34
2022-07-25T07:47:34.212Z,48.42
2022-07-25T07:48:34.201Z,48.10
2022-07-25T07:49:36.891Z,46.25
2022-07-25T07:50:34.157Z,47.04
2022-07-25T07:51:34.165Z,48.03
2022-07-25T07:52:34.135Z,47.14
2022-07-25T07:53:34.136Z,46.75
2022-07-25T07:54:34.108Z,46.55
2022-07-25T07:55:34.108Z,48.20
2022-07-25T07:56:34.099Z,49.18
2022-07-25T07:57:34.079Z,47.71
2022-07-25T07:58:34.090Z,49.35
2022-07-25T07:59:34.069Z,51.42
2022-07-25T08:00:34.049Z,47.39
2022-07-25T08:01:34.082Z,47.00
2022-07-25T08:02:34.070Z,49.08
2022-07-25T08:03:34.033Z,46.82
2022-07-25T08:04:34.010Z,47.71
2022-07-25T08:05:34.002Z,48.30
2022-07-25T08:06:33.998Z,51.97
2022-07-25T08:07:33.982Z,46.94
2022-07-25T08:08:34.144Z,47.92
2022-07-25T08:09:33.965Z,48.03
2022-07-25T08:10:33.957Z,47.04
2022-07-25T08:11:33.955Z,47.46
2022-07-25T08:12:33.927Z,47.85
2022-07-25T08:13:34.013Z,47.66
2022-07-25T08:14:33.922Z,49.26
2022-07-25T08:15:33.897Z,48.76
2022-07-25T08:16:33.968Z,48.66
2022-07-25T08:17:33.878Z,49.55
2022-07-25T08:18:33.908Z,52.70
2022-07-25T08:19:33.861Z,52.53
2022-07-25T08:20:38.520Z,52.43
2022-07-25T08:21:34.832Z,49.67
2022-07-25T08:22:33.829Z,48.69
2022-07-25T08:23:33.909Z,50.46
2022-07-25T08:24:33.812Z,49.57
2022-07-25T08:25:33.802Z,49.57
2022-07-25T08:26:33.805Z,49.57
2022-07-25T08:27:33.782Z,50.07
2022-07-25T08:28:33.774Z,52.63
2022-07-25T08:29:33.754Z,51.84
2022-07-25T08:30:33.744Z,49.69
2022-07-25T08:31:33.790Z,50.76
2022-07-25T08:32:33.724Z,49.30
2022-07-25T08:33:33.739Z,50.98
2022-07-25T08:34:33.717Z,53.05
2022-07-25T08:35:33.710Z,49.99
2022-07-25T08:36:34.838Z,51.07
2022-07-25T08:37:33.679Z,51.97
2022-07-25T08:38:33.686Z,53.74
2022-07-25T08:39:33.649Z,51.47
2022-07-25T08:40:33.647Z,53.34
2022-07-25T08:41:33.637Z,52.95
2022-07-25T08:42:33.622Z,52.85
2022-07-25T08:43:33.635Z,53.84
2022-07-25T08:44:33.601Z,54.33
2022-07-25T08:45:33.601Z,52.46
2022-07-25T08:46:33.615Z,53.25
2022-07-25T08:47:33.572Z,50.88
2022-07-25T08:48:33.599Z,51.97
2022-07-25T08:49:33.555Z,50.49
2022-07-25T08:50:33.546Z,53.64
2022-07-25T08:51:33.526Z,57.39
2022-07-25T08:52:33.516Z,55.41
2022-07-25T08:53:34.872Z,56.50
2022-07-25T08:54:33.494Z,55.32
2022-07-25T08:55:33.487Z,56.10
2022-07-25T08:56:33.469Z,56.10
2022-07-25T08:57:33.466Z,54.53
2022-07-25T08:58:33.466Z,55.51
2022-07-25T08:59:33.448Z,55.68
2022-07-25T09:00:33.428Z,58.84
2022-07-25T09:01:35.147Z,55.88
2022-07-25T09:02:33.610Z,58.64
2022-07-25T09:03:33.422Z,55.39
2022-07-25T09:04:33.391Z,59.01
2022-07-25T09:05:33.388Z,55.85
2022-07-25T09:06:33.361Z,56.15
2022-07-25T09:07:33.382Z,61.87
2022-07-25T09:08:33.362Z,57.04
2022-07-25T09:09:33.345Z,53.59
2022-07-25T09:10:33.333Z,51.32
2022-07-25T09:11:33.326Z,49.65
2022-07-25T09:12:33.345Z,49.75
2022-07-25T09:13:33.335Z,49.52
2022-07-25T09:14:33.297Z,49.70
2022-07-25T09:15:33.373Z,49.28
2022-07-25T09:16:33.274Z,49.13
2022-07-25T09:17:33.287Z,51.76
2022-07-25T09:18:33.258Z,49.21
2022-07-25T09:19:33.238Z,48.52
2022-07-25T09:20:33.230Z,47.76
2022-07-25T09:21:33.221Z,49.95
2022-07-25T09:22:33.210Z,51.50
2022-07-25T09:23:33.210Z,49.48
2022-07-25T09:24:33.190Z,50.02
2022-07-25T09:25:33.189Z,47.35
2022-07-25T09:26:33.172Z,49.77
2022-07-25T09:27:33.172Z,46.62
2022-07-25T09:28:33.164Z,47.99
2022-07-25T09:29:33.147Z,46.30
2022-07-25T09:30:33.124Z,43.73
2022-07-25T09:31:33.277Z,47.36
2022-07-25T09:32:33.120Z,45.10
2022-07-25T09:33:33.116Z,46.55
2022-07-25T09:34:33.096Z,47.45
2022-07-25T09:35:33.087Z,45.32
2022-07-25T09:36:33.090Z,46.42
2022-07-25T09:37:33.077Z,47.16
2022-07-25T09:38:33.058Z,48.94
2022-07-25T09:39:33.047Z,54.95
2022-07-25T09:40:33.039Z,48.99
2022-07-25T09:41:33.029Z,50.59
2022-07-25T09:42:33.017Z,50.59
2022-07-25T09:43:33.030Z,54.52
2022-07-25T09:44:33.004Z,52.25
2022-07-25T09:45:32.998Z,50.93
2022-07-25T09:46:33.073Z,47.86
2022-07-25T09:47:32.990Z,48.23
2022-07-25T09:48:33.015Z,46.23
2022-07-25T09:49:32.992Z,47.87
2022-07-25T09:50:32.966Z,50.12
2022-07-25T09:51:32.934Z,47.18
2022-07-25T09:52:32.924Z,49.04
2022-07-25T09:53:32.915Z,47.01
2022-07-25T09:54:32.907Z,47.01
2022-07-25T09:55:32.905Z,46.64
2022-07-25T09:56:32.889Z,47.45
2022-07-25T09:57:32.868Z,50.32
2022-07-25T09:58:32.872Z,48.86
2022-07-25T09:59:32.888Z,50.63
2022-07-25T10:00:32.842Z,49.38
2022-07-25T10:01:32.871Z,50.46
2022-07-25T10:02:32.966Z,52.92
2022-07-25T10:03:32.821Z,51.25
2022-07-25T10:04:32.829Z,50.39
2022-07-25T10:05:32.801Z,51.17
2022-07-25T10:06:32.781Z,51.30
2022-07-25T10:07:32.774Z,53.06
2022-07-25T10:08:32.765Z,50.42
2022-07-25T10:09:32.763Z,52.80
2022-07-25T10:10:32.746Z,54.47
2022-07-25T10:11:32.747Z,54.39
2022-07-25T10:12:32.724Z,51.18
2022-07-25T10:13:32.746Z,53.44
2022-07-25T10:14:32.728Z,56.32
2022-07-25T10:15:32.697Z,51.69
2022-07-25T10:16:32.712Z,53.19
2022-07-25T10:17:32.689Z,52.11
2022-07-25T10:18:32.658Z,52.04
2022-07-25T10:19:32.689Z,50.36
2022-07-25T10:20:32.639Z,52.33
2022-07-25T10:21:32.638Z,51.54
2022-07-25T10:22:54.717Z,51.18
2022-07-25T10:23:33.619Z,51.28
2022-07-25T10:24:32.631Z,53.44
2022-07-25T10:25:32.613Z,52.56
2022-07-25T10:26:32.590Z,51.77
2022-07-25T10:27:32.574Z,53.17
2022-07-25T10:28:32.566Z,54.36
2022-07-25T10:29:32.564Z,56.23
2022-07-25T10:30:32.626Z,57.24
2022-07-25T10:31:32.535Z,60.31
2022-07-25T10:32:32.545Z,61.52
2022-07-25T10:33:32.516Z,60.36
2022-07-25T10:34:32.507Z,63.26
2022-07-25T10:35:32.498Z,62.01
2022-07-25T10:36:32.489Z,64.41
2022-07-25T10:37:32.476Z,64.84
2022-07-25T10:38:32.468Z,66.06
2022-07-25T10:39:32.470Z,67.50
2022-07-25T10:40:32.439Z,68.83
2022-07-25T10:41:32.438Z,66.88
2022-07-25T10:42:32.418Z,69.06
2022-07-25T10:43:32.430Z,70.29
2022-07-25T10:44:32.410Z,68.57
2022-07-25T10:45:35.399Z,68.37
2022-07-25T10:46:33.417Z,68.57
2022-07-25T10:47:32.373Z,68.93
2022-07-25T10:48:32.398Z,73.79
2022-07-25T10:49:32.726Z,69.32
2022-07-25T10:50:54.493Z,69.29
2022-07-25T10:51:35.938Z,68.90
2022-07-25T10:52:33.319Z,70.18
2022-07-25T10:53:32.303Z,71.54
2022-07-25T10:54:32.295Z,68.37
2022-07-25T10:55:32.276Z,66.49
2022-07-25T10:56:32.267Z,66.49
2022-07-25T10:57:32.437Z,66.68
2022-07-25T10:58:32.246Z,67.47
2022-07-25T10:59:32.269Z,67.90
2022-07-25T11:00:32.236Z,66.42
2022-07-25T11:01:32.300Z,67.41
2022-07-25T11:02:32.288Z,66.71
2022-07-25T11:03:32.207Z,69.09
2022-07-25T11:04:32.170Z,66.71
2022-07-25T11:05:32.216Z,66.05
2022-07-25T11:06:32.149Z,65.46
2022-07-25T11:07:32.163Z,66.22
2022-07-25T11:08:32.130Z,67.31
2022-07-25T11:09:32.133Z,63.61
2022-07-25T11:10:32.114Z,65.46
2022-07-25T11:11:32.103Z,61.77
2022-07-25T11:12:32.121Z,62.07
2022-07-25T11:13:32.092Z,63.71
2022-07-25T11:14:32.073Z,63.32
2022-07-25T11:15:32.065Z,60.22
2022-07-25T11:16:32.158Z,65.23
2022-07-25T11:17:32.048Z,64.78
2022-07-25T11:18:32.027Z,63.69
2022-07-25T11:19:32.039Z,59.25
2022-07-25T11:20:32.019Z,57.70
2022-07-25T11:21:32.008Z,62.54
2022-07-25T11:22:32.002Z,60.89
2022-07-25T11:23:31.996Z,60.49
2022-07-25T11:24:31.999Z,59.23
2022-07-25T11:25:31.970Z,60.22
2022-07-25T11:26:31.973Z,60.92
2022-07-25T11:27:31.943Z,58.67
2022-07-25T11:28:31.946Z,60.45
2022-07-25T11:29:31.922Z,61.34
2022-07-25T11:30:31.913Z,62.13
2022-07-25T11:31:31.927Z,60.42
2022-07-25T11:32:31.907Z,60.03
2022-07-25T11:33:31.873Z,59.50
2022-07-25T11:34:31.877Z,61.55
2022-07-25T11:35:31.882Z,58.29
2022-07-25T11:36:31.844Z,58.00
2022-07-25T11:37:31.841Z,58.09
2022-07-25T11:38:31.836Z,58.51
2022-07-25T11:39:31.829Z,59.44
2022-07-25T11:40:31.833Z,60.03
2022-07-25T11:41:31.822Z,61.34
2022-07-25T11:42:31.787Z,59.14
2022-07-25T11:43:31.768Z,58.77
2022-07-25T11:44:31.768Z,58.94
2022-07-25T11:45:31.802Z,58.94
2022-07-25T11:46:31.787Z,57.33
2022-07-25T11:47:31.745Z,58.81
2022-07-25T11:48:31.773Z,58.61
2022-07-25T11:49:31.712Z,57.82
2022-07-25T11:50:31.721Z,60.10
2022-07-25T11:51:31.693Z,60.86
2022-07-25T11:52:31.690Z,57.77
2022-07-25T11:53:31.674Z,61.19
2022-07-25T11:54:31.664Z,60.97
2022-07-25T11:55:31.664Z,57.49
2022-07-25T11:56:42.655Z,56.25
2022-07-25T11:57:32.632Z,55.14
2022-07-25T11:58:31.629Z,55.11
2022-07-25T11:59:31.626Z,53.14
2022-07-25T12:00:31.625Z,54.38
2022-07-25T12:01:31.598Z,55.32
2022-07-25T12:02:31.780Z,56.63
2022-07-25T12:03:31.700Z,55.37
2022-07-25T12:04:31.578Z,59.19
2022-07-25T12:05:31.571Z,55.94
2022-07-25T12:06:31.550Z,55.62
2022-07-25T12:07:31.541Z,55.91
2022-07-25T12:08:31.550Z,56.99
2022-07-25T12:09:31.514Z,56.99
2022-07-25T12:10:31.573Z,54.33
2022-07-25T12:11:31.522Z,53.27
2022-07-25T12:12:31.495Z,54.58
2022-07-25T12:13:31.482Z,55.66
2022-07-25T12:14:35.365Z,55.35
2022-07-25T12:15:31.485Z,54.46
2022-07-25T12:16:31.500Z,55.54
2022-07-25T12:17:31.437Z,56.56
2022-07-25T12:18:31.425Z,54.78
2022-07-25T12:19:31.425Z,55.35
2022-07-25T12:20:31.426Z,54.03
2022-07-25T12:21:31.398Z,53.74
2022-07-25T12:22:31.398Z,53.84
2022-07-25T12:23:31.379Z,53.64
2022-07-25T12:24:31.369Z,53.22
2022-07-25T12:25:31.379Z,53.69
2022-07-25T12:26:31.350Z,51.18
2022-07-25T12:27:31.351Z,52.75
2022-07-25T12:28:31.333Z,51.54
2022-07-25T12:29:31.323Z,50.19
2022-07-25T12:30:31.382Z,49.80
2022-07-25T12:31:31.371Z,50.24
2022-07-25T12:32:31.294Z,51.94
2022-07-25T12:33:31.284Z,50.85
2022-07-25T12:34:31.276Z,52.33
2022-07-25T12:35:31.288Z,50.76
2022-07-25T12:36:31.255Z,52.04
2022-07-25T12:37:31.259Z,51.03
2022-07-25T12:38:31.247Z,50.83
2022-07-25T12:39:31.228Z,50.24
2022-07-25T12:40:31.238Z,52.70
2022-07-25T12:41:31.207Z,50.81
2022-07-25T12:42:31.198Z,50.61
2022-07-25T12:43:31.201Z,50.88
2022-07-25T12:44:31.204Z,51.97
2022-07-25T12:45:31.242Z,48.69
2022-07-25T12:46:31.170Z,48.89
2022-07-25T12:47:31.161Z,47.71
2022-07-25T12:48:31.215Z,47.91
2022-07-25T12:49:31.141Z,47.83
2022-07-25T12:50:31.143Z,50.78
2022-07-25T12:51:31.135Z,48.32
2022-07-25T12:52:31.129Z,49.21